Time;durP1;ratioP1;P1;durP2;ratioP2;P2;SDS_P1;SDS_P2;PMS_P1;PMS_P2;Temp;Humidity;BMP_temperature;BMP_pressure;BME280_temperature;BME280_humidity;BME280_pressure;Samples;Min_cycle;Max_cycle;Signal;HPM_P1;HPM_P2
2023/04/10 00:00:01;;;;;;;;;;;;;;;22.74;34.07;101256.09;103777;1283;61391;-83
2023/04/10 00:02:26;;;;;;;;;;;;;;;22.73;34.06;101257.04;103713;1283;61464;-83
2023/04/10 00:04:52;;;;;;;;;;;;;;;22.73;34.14;101257.40;103782;1288;61390;-83
2023/04/10 00:07:17;;;;;;;;;;;;;;;22.73;34.05;101255.81;103739;1283;62064;-82
2023/04/10 00:09:42;;;;;;;;;;;;;;;22.73;34.10;101255.46;103712;1282;61262;-83
2023/04/10 00:12:10;;;;;;;;;;;;;;;22.73;34.08;101254.55;103654;1283;62649;-83
2023/04/10 00:14:35;;;;;;;;;;;;;;;22.73;34.02;101250.41;103757;1286;61396;-83
2023/04/10 00:17:01;;;;;;;;;;;;;;;22.73;34.17;101252.21;103696;1282;61467;-82
2023/04/10 00:19:26;;;;;;;;;;;;;;;22.73;34.05;101245.58;103734;1283;61797;-82
2023/04/10 00:21:52;;;;;;;;;;;;;;;22.73;34.15;101246.12;103715;1283;61397;-82
2023/04/10 00:24:17;;;;;;;;;;;;;;;22.72;34.13;101241.85;103781;1288;61397;-83
2023/04/10 00:26:43;;;;;;;;;;;;;;;22.73;33.97;101238.77;103566;1283;61320;-83
2023/04/10 00:29:08;;;;;;;;;;;;;;;22.72;34.04;101233.23;103779;1282;62683;-83
2023/04/10 00:31:34;;;;;;;;;;;;;;;22.73;33.92;101231.41;103737;1283;61380;-82
2023/04/10 00:33:59;;;;;;;;;;;;;;;22.72;33.95;101226.63;103711;1282;61452;-83
2023/04/10 00:36:26;;;;;;;;;;;;;;;22.72;34.03;101224.84;103711;1288;61478;-83
2023/04/10 00:38:52;;;;;;;;;;;;;;;22.72;33.85;101223.02;103793;1287;73421;-83
2023/04/10 00:41:17;;;;;;;;;;;;;;;22.72;33.93;101218.55;103657;1283;62411;-83
2023/04/10 00:43:43;;;;;;;;;;;;;;;22.72;33.86;101212.80;103759;1283;61404;-81
2023/04/10 00:46:09;;;;;;;;;;;;;;;22.72;33.87;101209.23;103786;1282;61409;-83
2023/04/10 00:48:34;;;;;;;;;;;;;;;22.72;34.00;101206.68;103774;1283;61484;-82
2023/04/10 00:51:00;;;;;;;;;;;;;;;22.73;33.96;101206.31;103780;1283;73428;-82
2023/04/10 00:53:26;;;;;;;;;;;;;;;22.73;33.93;101208.10;103739;1283;62576;-82
2023/04/10 00:55:52;;;;;;;;;;;;;;;22.72;33.94;101198.84;103717;1282;61381;-82
2023/04/10 00:58:17;;;;;;;;;;;;;;;22.72;33.84;101199.73;103743;1283;62440;-82
2023/04/10 01:00:43;;;;;;;;;;;;;;;22.72;33.79;101196.52;103777;1282;61374;-81
2023/04/10 01:03:09;;;;;;;;;;;;;;;22.71;33.84;101196.70;103773;1288;61730;-82
2023/04/10 01:05:41;;;;;;;;;;;;;;;22.72;33.88;101195.62;103780;1283;75102;-83
2023/04/10 01:08:21;;;;;;;;;;;;;;;22.72;33.80;101193.29;103783;1282;62018;-81
2023/04/10 01:10:59;;;;;;;;;;;;;;;22.71;33.81;101193.46;103784;1283;61382;-83
2023/04/10 01:13:27;;;;;;;;;;;;;;;22.72;33.85;101190.41;103752;1282;72538;-83
2023/04/10 01:16:12;;;;;;;;;;;;;;;22.72;33.87;101191.32;103566;1283;75500;-82
2023/04/10 01:18:43;;;;;;;;;;;;;;;22.72;33.80;101188.27;103789;1282;62462;-81
2023/04/10 01:21:10;;;;;;;;;;;;;;;22.71;33.90;101187.37;103710;1283;62535;-81
2023/04/10 01:23:54;;;;;;;;;;;;;;;22.72;33.82;101193.11;103552;1290;72413;-82
2023/04/10 01:26:31;;;;;;;;;;;;;;;22.72;33.74;101191.29;103794;1285;75417;-83
2023/04/10 01:29:00;;;;;;;;;;;;;;;22.72;33.83;101191.83;103889;1282;62577;-81
2023/04/10 01:31:36;;;;;;;;;;;;;;;22.72;33.72;101192.02;104007;1282;61624;-82
2023/04/10 01:34:06;;;;;;;;;;;;;;;22.72;33.72;101189.51;103825;1282;73531;-81
2023/04/10 01:36:33;;;;;;;;;;;;;;;22.71;33.76;101186.84;103787;1284;75342;-81
2023/04/10 01:38:59;;;;;;;;;;;;;;;22.72;33.75;101183.41;103746;1282;61260;-81
2023/04/10 01:41:25;;;;;;;;;;;;;;;22.72;33.73;101182.34;103773;1288;61294;-81
2023/04/10 01:43:51;;;;;;;;;;;;;;;22.71;33.65;101184.14;103711;1282;62559;-81
2023/04/10 01:46:19;;;;;;;;;;;;;;;22.71;33.71;101187.04;103700;1287;61384;-82
2023/04/10 01:48:45;;;;;;;;;;;;;;;22.72;33.71;101185.56;103778;1283;61470;-82
2023/04/10 01:51:11;;;;;;;;;;;;;;;22.72;33.67;101184.15;103740;1283;61360;-82
2023/04/10 01:53:36;;;;;;;;;;;;;;;22.71;33.73;101181.99;103757;1288;61396;-83
2023/04/10 01:56:02;;;;;;;;;;;;;;;22.71;33.77;101178.45;103712;1282;62588;-82
2023/04/10 01:58:27;;;;;;;;;;;;;;;22.72;33.68;101175.36;103542;1286;61471;-82
2023/04/10 02:00:53;;;;;;;;;;;;;;;22.71;33.63;101172.71;103435;1289;61409;-82
2023/04/10 02:03:21;;;;;;;;;;;;;;;22.70;33.70;101169.52;103453;1286;61394;-83
2023/04/10 02:06:05;;;;;;;;;;;;;;;22.70;33.58;101170.77;103349;1286;72571;-82
2023/04/10 02:08:33;;;;;;;;;;;;;;;22.70;33.69;101167.17;103472;1286;75259;-82
2023/04/10 02:11:16;;;;;;;;;;;;;;;22.70;33.63;101165.21;103453;1285;61334;-82
2023/04/10 02:13:42;;;;;;;;;;;;;;;22.71;33.64;101163.22;103319;1288;61465;-82
2023/04/10 02:16:08;;;;;;;;;;;;;;;22.70;33.65;101163.63;103432;1286;61560;-82
2023/04/10 02:18:34;;;;;;;;;;;;;;;22.70;33.60;101166.15;103442;1285;61448;-82
2023/04/10 02:20:59;;;;;;;;;;;;;;;22.70;33.66;101168.98;103431;1291;62527;-82
2023/04/10 02:23:25;;;;;;;;;;;;;;;22.70;33.59;101167.70;103424;1285;61301;-82
2023/04/10 02:25:50;;;;;;;;;;;;;;;22.70;33.68;101170.45;103441;1285;61559;-83
2023/04/10 02:28:16;;;;;;;;;;;;;;;22.70;33.51;101168.64;103456;1286;72502;-82
2023/04/10 02:30:41;;;;;;;;;;;;;;;22.70;33.57;101167.55;103608;1288;62470;-82
2023/04/10 02:33:07;;;;;;;;;;;;;;;22.70;33.57;101164.91;103754;1283;61451;-82
2023/04/10 02:35:33;;;;;;;;;;;;;;;22.70;33.54;101165.79;103690;1283;61425;-82
2023/04/10 02:37:58;;;;;;;;;;;;;;;22.70;33.61;101165.59;103811;1283;61253;-83
2023/04/10 02:40:24;;;;;;;;;;;;;;;22.70;33.51;101168.46;103726;1287;73611;-82
2023/04/10 02:42:50;;;;;;;;;;;;;;;22.70;33.65;101168.84;103822;1282;61400;-82
2023/04/10 02:45:15;;;;;;;;;;;;;;;22.70;33.56;101167.36;103783;1283;61384;-81
2023/04/10 02:47:41;;;;;;;;;;;;;;;22.70;33.53;101161.48;103743;1282;61768;-83
2023/04/10 02:50:06;;;;;;;;;;;;;;;22.69;33.46;101157.02;103801;1283;61361;-82
2023/04/10 02:52:32;;;;;;;;;;;;;;;22.69;33.59;101154.53;103761;1283;72506;-82
2023/04/10 02:54:57;;;;;;;;;;;;;;;22.69;33.60;101158.48;103693;1283;61479;-82
2023/04/10 02:57:23;;;;;;;;;;;;;;;22.69;33.52;101160.27;103719;1288;61381;-82
2023/04/10 02:59:50;;;;;;;;;;;;;;;22.69;33.48;101156.36;103778;1282;61289;-81
2023/04/10 03:02:15;;;;;;;;;;;;;;;22.69;33.53;101160.45;103749;1288;61467;-82
2023/04/10 03:04:41;;;;;;;;;;;;;;;22.69;33.48;101159.39;103759;1282;62616;-82
2023/04/10 03:07:07;;;;;;;;;;;;;;;22.69;33.45;101158.50;103700;1283;75489;-83
2023/04/10 03:09:32;;;;;;;;;;;;;;;22.68;33.54;101157.82;103790;1282;61838;-83
2023/04/10 03:11:58;;;;;;;;;;;;;;;22.69;33.39;101158.69;103571;1291;61387;-82
2023/04/10 03:14:25;;;;;;;;;;;;;;;22.69;33.33;101153.50;103798;1282;61394;-83
2023/04/10 03:16:50;;;;;;;;;;;;;;;22.69;33.48;101154.39;103745;1288;61371;-83
2023/04/10 03:19:16;;;;;;;;;;;;;;;22.68;33.47;101159.07;103822;1288;61390;-82
2023/04/10 03:21:41;;;;;;;;;;;;;;;22.68;33.40;101162.29;103709;1286;61362;-83
2023/04/10 03:24:07;;;;;;;;;;;;;;;22.68;33.44;101163.05;103755;1282;61349;-83
2023/04/10 03:26:32;;;;;;;;;;;;;;;22.68;33.44;101164.14;103741;1284;61453;-82
2023/04/10 03:28:58;;;;;;;;;;;;;;;22.68;33.34;101161.58;103724;1282;62426;-82
2023/04/10 03:31:24;;;;;;;;;;;;;;;22.68;33.37;101163.41;103749;1283;62457;-82
2023/04/10 03:33:50;;;;;;;;;;;;;;;22.68;33.45;101165.39;103761;1288;61458;-82
2023/04/10 03:36:15;;;;;;;;;;;;;;;22.68;33.31;101167.54;103746;1283;61387;-83
2023/04/10 03:38:41;;;;;;;;;;;;;;;22.68;33.36;101167.35;103729;1283;61388;-82
2023/04/10 03:41:06;;;;;;;;;;;;;;;22.68;33.35;101168.81;103761;1288;62560;-82
2023/04/10 03:43:32;;;;;;;;;;;;;;;22.68;33.38;101166.11;103716;1283;61387;-82
2023/04/10 03:45:57;;;;;;;;;;;;;;;22.67;33.38;101167.28;103785;1282;62429;-82
2023/04/10 03:48:26;;;;;;;;;;;;;;;22.66;33.33;101168.39;103786;1288;61387;-82
2023/04/10 03:50:52;;;;;;;;;;;;;;;22.65;33.30;101173.11;103759;1288;72359;-83
2023/04/10 03:53:17;;;;;;;;;;;;;;;22.64;33.31;101174.82;103710;1288;62448;-82
2023/04/10 03:55:44;;;;;;;;;;;;;;;22.63;33.21;101172.02;103869;1282;61293;-82
2023/04/10 03:58:09;;;;;;;;;;;;;;;22.62;33.20;101174.23;103752;1283;61464;-82
2023/04/10 04:00:35;;;;;;;;;;;;;;;22.63;33.05;101176.73;103739;1288;61346;-82
2023/04/10 04:03:03;;;;;;;;;;;;;;;22.63;32.98;101174.88;103796;1283;62634;-83
2023/04/10 04:05:29;;;;;;;;;;;;;;;22.64;32.90;101179.48;103501;1283;73277;-82
2023/04/10 04:07:55;;;;;;;;;;;;;;;22.66;32.92;101181.33;103802;1283;61368;-83
2023/04/10 04:10:21;;;;;;;;;;;;;;;22.66;32.87;101177.17;103754;1288;62429;-82
2023/04/10 04:12:47;;;;;;;;;;;;;;;22.68;32.75;101178.85;103770;1282;61381;-83
2023/04/10 04:15:13;;;;;;;;;;;;;;;22.68;32.75;101178.29;103735;1288;61409;-82
2023/04/10 04:17:39;;;;;;;;;;;;;;;22.69;32.86;101179.67;103575;1282;61477;-83
2023/04/10 04:20:05;;;;;;;;;;;;;;;22.70;32.76;101178.19;103744;1282;61377;-83
2023/04/10 04:22:30;;;;;;;;;;;;;;;22.71;32.71;101178.66;103602;1289;61704;-83
2023/04/10 04:24:56;;;;;;;;;;;;;;;22.71;32.64;101179.33;103748;1288;61377;-82
2023/04/10 04:27:22;;;;;;;;;;;;;;;22.72;32.67;101185.01;103756;1288;61457;-82
2023/04/10 04:29:47;;;;;;;;;;;;;;;22.73;32.53;101185.31;103773;1283;62367;-83
2023/04/10 04:32:13;;;;;;;;;;;;;;;22.73;32.57;101181.88;103772;1288;61441;-83
2023/04/10 04:34:39;;;;;;;;;;;;;;;22.73;32.61;101182.42;103653;1288;62089;-83
2023/04/10 04:37:04;;;;;;;;;;;;;;;22.73;32.59;101177.22;103705;1282;61438;-83
2023/04/10 04:39:30;;;;;;;;;;;;;;;22.73;32.50;101177.76;103790;1283;62489;-82
2023/04/10 04:41:55;;;;;;;;;;;;;;;22.73;32.53;101178.06;103593;1283;61394;-82
2023/04/10 04:44:21;;;;;;;;;;;;;;;22.74;32.44;101179.28;103765;1288;61414;-82
2023/04/10 04:46:46;;;;;;;;;;;;;;;22.74;32.40;101181.61;103812;1288;62663;-83
2023/04/10 04:49:12;;;;;;;;;;;;;;;22.74;32.36;101184.84;103725;1287;61379;-83
2023/04/10 04:51:38;;;;;;;;;;;;;;;22.74;32.45;101188.05;103727;1283;61361;-83
2023/04/10 04:54:04;;;;;;;;;;;;;;;22.75;32.46;101191.22;103778;1288;61432;-82
2023/04/10 04:56:30;;;;;;;;;;;;;;;22.75;32.47;101191.61;103872;1288;62344;-82
2023/04/10 04:58:55;;;;;;;;;;;;;;;22.75;32.47;101194.80;103743;1288;61384;-81
2023/04/10 05:01:21;;;;;;;;;;;;;;;22.75;32.37;101194.46;104161;1282;62434;-80
2023/04/10 05:03:46;;;;;;;;;;;;;;;22.75;32.49;101188.16;103674;1288;75459;-81
2023/04/10 05:06:13;;;;;;;;;;;;;;;22.75;32.50;101191.92;103710;1288;61549;-82
2023/04/10 05:08:38;;;;;;;;;;;;;;;22.75;32.33;101192.83;103899;1288;61394;-83
2023/04/10 05:11:04;;;;;;;;;;;;;;;22.75;32.57;101193.41;103771;1288;62513;-82
2023/04/10 05:13:29;;;;;;;;;;;;;;;22.74;32.45;101190.55;103631;1288;62451;-82
2023/04/10 05:15:55;;;;;;;;;;;;;;;22.74;32.37;101191.11;103804;1288;61477;-81
2023/04/10 05:18:22;;;;;;;;;;;;;;;22.74;32.25;101189.30;103775;1283;61740;-82
2023/04/10 05:20:48;;;;;;;;;;;;;;;22.74;32.22;101187.16;103806;1282;61288;-82
2023/04/10 05:23:14;;;;;;;;;;;;;;;22.74;32.28;101184.66;103763;1288;61460;-82
2023/04/10 05:25:40;;;;;;;;;;;;;;;22.74;32.20;101183.45;103587;1288;61321;-83
2023/04/10 05:28:05;;;;;;;;;;;;;;;22.73;32.22;101184.36;104088;1288;62634;-82
2023/04/10 05:30:31;;;;;;;;;;;;;;;22.73;32.12;101184.17;103991;1283;61390;-82
2023/04/10 05:32:56;;;;;;;;;;;;;;;22.74;32.15;101186.13;103805;1282;62125;-82
2023/04/10 05:35:22;;;;;;;;;;;;;;;22.74;32.07;101188.46;103737;1283;61958;-82
2023/04/10 05:37:47;;;;;;;;;;;;;;;22.74;32.09;101186.80;103908;1283;62594;-82
2023/04/10 05:40:13;;;;;;;;;;;;;;;22.75;32.04;101185.17;103853;1288;61342;-82
2023/04/10 05:42:38;;;;;;;;;;;;;;;22.75;31.92;101187.95;103617;1286;61723;-83
2023/04/10 05:45:04;;;;;;;;;;;;;;;22.76;31.99;101192.26;103577;1291;62363;-82
2023/04/10 05:47:30;;;;;;;;;;;;;;;22.78;31.95;101190.17;103576;1285;73449;-82
2023/04/10 05:49:55;;;;;;;;;;;;;;;22.78;31.95;101187.45;103520;1286;62498;-80
2023/04/10 05:52:21;;;;;;;;;;;;;;;22.79;31.90;101195.09;103734;1285;61771;-80
2023/04/10 05:54:46;;;;;;;;;;;;;;;22.80;31.88;101193.98;103485;1286;61558;-81
2023/04/10 05:57:11;;;;;;;;;;;;;;;22.80;31.90;101191.08;103666;1291;61385;-83
2023/04/10 05:59:37;;;;;;;;;;;;;;;22.80;31.85;101193.02;103657;1285;61413;-81
2023/04/10 06:02:03;;;;;;;;;;;;;;;22.81;31.85;101194.94;103472;1291;61810;-81
2023/04/10 06:04:28;;;;;;;;;;;;;;;22.82;31.91;101191.29;103587;1291;61868;-80
2023/04/10 06:06:54;;;;;;;;;;;;;;;22.83;31.84;101192.15;103484;1285;62443;-80
2023/04/10 06:09:22;;;;;;;;;;;;;;;22.83;31.81;101192.45;103528;1291;61392;-81
2023/04/10 06:11:47;;;;;;;;;;;;;;;22.85;31.89;101189.65;103863;1285;62718;-81
2023/04/10 06:14:13;;;;;;;;;;;;;;;22.85;31.75;101189.23;103850;1286;61311;-82
2023/04/10 06:16:38;;;;;;;;;;;;;;;22.87;31.83;101189.86;103850;1285;61314;-81
2023/04/10 06:19:04;;;;;;;;;;;;;;;22.88;31.79;101188.31;103915;1286;61381;-81
2023/04/10 06:21:29;;;;;;;;;;;;;;;22.89;31.85;101187.89;103749;1288;61420;-82
2023/04/10 06:23:55;;;;;;;;;;;;;;;22.90;31.84;101188.53;103825;1288;61964;-82
2023/04/10 06:26:20;;;;;;;;;;;;;;;22.91;31.88;101180.73;104200;1288;61375;-80
2023/04/10 06:28:45;;;;;;;;;;;;;;;22.91;31.82;101181.66;104044;1287;61252;-80
2023/04/10 06:31:11;;;;;;;;;;;;;;;22.92;31.68;101184.23;103961;1283;61346;-81
2023/04/10 06:33:36;;;;;;;;;;;;;;;22.92;31.76;101182.80;103684;1288;62589;-82
2023/04/10 06:36:02;;;;;;;;;;;;;;;22.93;31.80;101185.95;103942;1288;61473;-82
2023/04/10 06:38:29;;;;;;;;;;;;;;;22.95;31.76;101187.82;103709;1288;62480;-82
2023/04/10 06:40:54;;;;;;;;;;;;;;;22.96;31.86;101188.84;103814;1288;62005;-82
2023/04/10 06:43:20;;;;;;;;;;;;;;;22.98;31.92;101193.77;103941;1286;61372;-81
2023/04/10 06:45:45;;;;;;;;;;;;;;;22.98;31.88;101193.35;104249;1288;61379;-81
2023/04/10 06:48:11;;;;;;;;;;;;;;;23.00;31.93;101196.48;103941;1288;61461;-81
2023/04/10 06:50:37;;;;;;;;;;;;;;;23.00;32.04;101196.25;104091;1285;61375;-81
2023/04/10 06:53:03;;;;;;;;;;;;;;;23.01;32.02;101197.08;103886;1288;61387;-81
2023/04/10 06:55:28;;;;;;;;;;;;;;;23.02;32.01;101194.33;103978;1288;62517;-82
2023/04/10 06:57:55;;;;;;;;;;;;;;;23.03;32.12;101198.04;103933;1288;61281;-81
2023/04/10 07:00:21;;;;;;;;;;;;;;;23.03;32.06;101197.64;103976;1283;74444;-81
2023/04/10 07:02:47;;;;;;;;;;;;;;;23.04;32.00;101198.09;103833;1288;61525;-81
2023/04/10 07:05:13;;;;;;;;;;;;;;;23.05;32.01;101195.92;103534;1283;642366;-81
2023/04/10 07:07:39;;;;;;;;;;;;;;;23.05;32.11;101198.94;103898;1287;61470;-82
2023/04/10 07:10:05;;;;;;;;;;;;;;;23.06;32.01;101201.39;103855;1289;61405;-82
2023/04/10 07:12:31;;;;;;;;;;;;;;;23.06;32.22;101200.14;103641;1291;61464;-82
2023/04/10 07:14:57;;;;;;;;;;;;;;;23.06;32.10;101202.14;103657;1286;61782;-82
2023/04/10 07:17:23;;;;;;;;;;;;;;;23.05;32.07;101199.29;103443;1292;61384;-81
2023/04/10 07:19:48;;;;;;;;;;;;;;;23.05;32.07;101201.11;103744;1288;61374;-82
2023/04/10 07:22:14;;;;;;;;;;;;;;;23.05;32.07;101201.30;103605;1291;61515;-82
2023/04/10 07:24:40;;;;;;;;;;;;;;;23.04;31.95;101198.67;103482;1285;61426;-82
2023/04/10 07:27:05;;;;;;;;;;;;;;;23.04;31.90;101200.48;103438;1286;61830;-82
2023/04/10 07:29:31;;;;;;;;;;;;;;;23.04;31.88;101201.55;103728;1288;63028;-82
2023/04/10 07:31:56;;;;;;;;;;;;;;;23.03;31.76;101203.55;103612;1285;61566;-83
2023/04/10 07:34:22;;;;;;;;;;;;;;;23.03;31.83;101201.25;103606;1291;61391;-82
2023/04/10 07:36:48;;;;;;;;;;;;;;;23.03;31.69;101197.83;103597;1285;61381;-82
2023/04/10 07:39:14;;;;;;;;;;;;;;;23.03;31.61;101197.84;103555;1292;61394;-82
2023/04/10 07:41:39;;;;;;;;;;;;;;;23.02;31.59;101201.30;103556;1285;62455;-82
2023/04/10 07:44:05;;;;;;;;;;;;;;;23.02;31.63;101199.36;103760;1289;61403;-80
2023/04/10 07:46:30;;;;;;;;;;;;;;;23.01;31.58;101199.60;103710;1288;61700;-82
2023/04/10 07:48:56;;;;;;;;;;;;;;;23.00;31.43;101200.02;103807;1289;62562;-82
2023/04/10 07:51:21;;;;;;;;;;;;;;;23.00;31.42;101198.04;103795;1287;61399;-82
2023/04/10 07:53:47;;;;;;;;;;;;;;;23.00;31.44;101200.78;103994;1288;61822;-82
2023/04/10 07:56:16;;;;;;;;;;;;;;;23.00;31.34;101195.71;103992;1283;61474;-82
2023/04/10 07:58:42;;;;;;;;;;;;;;;23.00;31.35;101192.11;103905;1288;75465;-81
2023/04/10 08:01:07;;;;;;;;;;;;;;;23.01;31.31;101194.39;103974;1288;61361;-81
2023/04/10 08:03:37;;;;;;;;;;;;;;;23.01;31.23;101191.33;103853;1288;61383;-81
2023/04/10 08:06:02;;;;;;;;;;;;;;;23.02;31.25;101193.27;103936;1283;73467;-82
2023/04/10 08:08:28;;;;;;;;;;;;;;;23.02;31.21;101192.18;103784;1296;61289;-82
2023/04/10 08:10:53;;;;;;;;;;;;;;;23.03;31.08;101187.44;103772;1282;61752;-82
2023/04/10 08:13:19;;;;;;;;;;;;;;;23.04;31.02;101188.83;103848;1288;61391;-82
2023/04/10 08:15:44;;;;;;;;;;;;;;;23.03;30.95;101183.27;103973;1288;61369;-82
2023/04/10 08:18:09;;;;;;;;;;;;;;;23.04;31.00;101178.40;103980;1288;61426;-82
2023/04/10 08:20:35;;;;;;;;;;;;;;;23.04;30.98;101175.14;103911;1283;62420;-82
2023/04/10 08:23:02;;;;;;;;;;;;;;;23.04;30.93;101175.66;103831;1289;62096;-82
2023/04/10 08:25:27;;;;;;;;;;;;;;;23.04;30.97;101175.68;104084;1282;61381;-82
2023/04/10 08:27:53;;;;;;;;;;;;;;;23.04;30.84;101174.93;103777;1289;61350;-81
2023/04/10 08:30:18;;;;;;;;;;;;;;;23.05;30.86;101172.05;104121;1288;61371;-80
2023/04/10 08:32:44;;;;;;;;;;;;;;;23.05;30.92;101170.24;103922;1289;73644;-81
2023/04/10 08:35:09;;;;;;;;;;;;;;;23.05;30.90;101170.73;103998;1297;61351;-83
2023/04/10 08:37:34;;;;;;;;;;;;;;;23.07;30.86;101167.23;104027;1288;61301;-83
2023/04/10 08:40:00;;;;;;;;;;;;;;;23.07;30.81;101168.10;103997;1289;61459;-81
2023/04/10 08:42:26;;;;;;;;;;;;;;;23.08;30.80;101165.16;104191;1288;61314;-81
2023/04/10 08:44:51;;;;;;;;;;;;;;;23.09;30.75;101159.53;103985;1283;75253;-81
2023/04/10 08:47:18;;;;;;;;;;;;;;;23.10;30.84;101155.34;103878;1288;61452;-81
2023/04/10 08:49:44;;;;;;;;;;;;;;;23.11;30.81;101155.77;103927;1288;61336;-82
2023/04/10 08:52:13;;;;;;;;;;;;;;;23.12;30.76;101153.17;103850;1289;62153;-81
2023/04/10 08:54:38;;;;;;;;;;;;;;;23.14;30.81;101148.26;104066;1283;75769;-81
2023/04/10 08:57:05;;;;;;;;;;;;;;;23.15;30.82;101145.48;103874;1289;61383;-81
2023/04/10 08:59:31;;;;;;;;;;;;;;;23.16;30.78;101149.54;104279;1286;63504;-81
2023/04/10 09:01:56;;;;;;;;;;;;;;;23.17;30.79;101147.64;103812;1286;61475;-81
2023/04/10 09:04:25;;;;;;;;;;;;;;;23.18;30.88;101142.75;103819;1287;61342;-82
2023/04/10 09:06:51;;;;;;;;;;;;;;;23.19;30.78;101145.48;103877;1284;61390;-82
2023/04/10 09:09:17;;;;;;;;;;;;;;;23.20;30.82;101145.45;103868;1283;61483;-82
2023/04/10 09:11:51;;;;;;;;;;;;;;;23.19;30.89;101139.21;103879;1283;62460;-82
2023/04/10 09:14:20;;;;;;;;;;;;;;;23.19;30.82;101132.37;103849;1283;74989;-82
2023/04/10 09:16:46;;;;;;;;;;;;;;;23.20;30.94;101124.48;104046;1285;61265;-82
2023/04/10 09:19:12;;;;;;;;;;;;;;;23.20;30.84;101124.59;103775;1283;61900;-80
2023/04/10 09:21:37;;;;;;;;;;;;;;;23.20;30.87;101120.65;103786;1283;61361;-81
2023/04/10 09:24:03;;;;;;;;;;;;;;;23.21;30.96;101122.23;104171;1288;61377;-81
2023/04/10 09:26:32;;;;;;;;;;;;;;;23.21;30.86;101116.29;103982;1283;62505;-80
2023/04/10 09:29:05;;;;;;;;;;;;;;;23.21;30.87;101113.79;103893;1283;61371;-80
2023/04/10 09:31:34;;;;;;;;;;;;;;;23.21;30.86;101115.74;103808;1282;72466;-80
2023/04/10 09:34:25;;;;;;;;;;;;;;;23.21;30.92;101109.43;104030;1288;74719;-80
2023/04/10 09:36:55;;;;;;;;;;;;;;;23.22;30.88;101104.73;103982;1283;61359;-81
2023/04/10 09:39:43;;;;;;;;;;;;;;;23.22;30.92;101094.50;103982;1283;61342;-82
2023/04/10 09:42:10;;;;;;;;;;;;;;;23.22;30.96;101096.78;103948;1289;73543;-81
2023/04/10 09:44:37;;;;;;;;;;;;;;;23.23;30.99;101096.70;104800;1285;75509;-81
2023/04/10 09:47:21;;;;;;;;;;;;;;;23.25;31.11;101087.25;103973;1288;61884;-81
2023/04/10 09:49:49;;;;;;;;;;;;;;;23.26;31.20;101086.30;103776;1282;62481;-82
2023/04/10 09:52:37;;;;;;;;;;;;;;;23.26;31.16;101087.74;103949;1283;72450;-82
2023/04/10 09:55:08;;;;;;;;;;;;;;;23.26;31.28;101079.66;103806;1288;75479;-82
2023/04/10 09:57:34;;;;;;;;;;;;;;;23.26;31.27;101078.75;103857;1288;62433;-81
2023/04/10 10:00:07;;;;;;;;;;;;;;;23.25;31.36;101083.15;103859;1283;61474;-81
2023/04/10 10:02:37;;;;;;;;;;;;;;;23.24;31.37;101081.39;103900;1287;73382;-80
2023/04/10 10:05:03;;;;;;;;;;;;;;;23.24;31.48;101074.19;103988;1283;75412;-81
2023/04/10 10:07:29;;;;;;;;;;;;;;;23.23;31.42;101068.88;103795;1286;61870;-80
2023/04/10 10:09:55;;;;;;;;;;;;;;;23.23;31.47;101062.83;103901;1288;61403;-81
2023/04/10 10:12:22;;;;;;;;;;;;;;;23.22;31.39;101062.13;103799;1283;61755;-81
2023/04/10 10:14:54;;;;;;;;;;;;;;;23.22;31.35;101059.13;103938;1286;61982;-81
2023/04/10 10:17:20;;;;;;;;;;;;;;;23.22;31.57;101056.78;103978;1283;62544;-82
2023/04/10 10:19:49;;;;;;;;;;;;;;;23.21;31.51;101056.79;103886;1282;61454;-81
2023/04/10 10:22:15;;;;;;;;;;;;;;;23.22;31.55;101060.23;103848;1287;73766;-81
2023/04/10 10:24:41;;;;;;;;;;;;;;;23.21;31.48;101055.94;103827;1289;61406;-82
2023/04/10 10:27:08;;;;;;;;;;;;;;;23.21;31.42;101047.66;103786;1282;62970;-82
2023/04/10 10:29:33;;;;;;;;;;;;;;;23.20;31.41;101046.12;103913;1286;61401;-82
2023/04/10 10:31:59;;;;;;;;;;;;;;;23.21;31.48;101038.73;103824;1288;61342;-82
2023/04/10 10:34:24;;;;;;;;;;;;;;;23.21;31.37;101045.89;103836;1288;61419;-82
2023/04/10 10:36:50;;;;;;;;;;;;;;;23.21;31.42;101039.23;103836;1288;61442;-82
2023/04/10 10:39:34;;;;;;;;;;;;;;;23.22;31.31;101034.86;103815;1288;61387;-82
2023/04/10 10:42:02;;;;;;;;;;;;;;;23.24;31.31;101027.91;103943;1285;61327;-80
2023/04/10 10:44:48;;;;;;;;;;;;;;;23.25;31.23;101027.80;103891;1283;73425;-81
2023/04/10 10:47:18;;;;;;;;;;;;;;;23.27;31.15;101025.30;103681;1288;74275;-82
2023/04/10 10:49:57;;;;;;;;;;;;;;;23.29;31.15;101021.44;104262;1283;63593;-80
2023/04/10 10:52:42;;;;;;;;;;;;;;;23.30;31.19;101016.49;103969;1283;61320;-81
2023/04/10 10:55:56;;;;;;;;;;;;;;;23.31;31.12;101015.90;103825;1285;72428;-81
2023/04/10 10:58:16;;;;;;;;;;;;;;;23.33;31.18;101017.88;103835;1286;75656;-82
2023/04/10 11:00:48;;;;;;;;;;;;;;;23.34;30.99;101009.87;103641;1289;61405;-82
2023/04/10 11:03:14;;;;;;;;;;;;;;;23.35;31.00;101005.84;103592;1285;61532;-83
2023/04/10 11:05:49;;;;;;;;;;;;;;;23.36;31.05;101000.77;103758;1285;61465;-82
2023/04/10 11:08:15;;;;;;;;;;;;;;;23.38;30.88;100996.45;103747;1285;75248;-80
2023/04/10 11:11:04;;;;;;;;;;;;;;;23.39;30.97;100992.61;103748;1289;61530;-81
2023/04/10 11:13:30;;;;;;;;;;;;;;;23.40;30.96;100992.31;103701;1285;61378;-82
2023/04/10 11:15:56;;;;;;;;;;;;;;;23.42;30.88;100986.48;103575;1288;61475;-82
2023/04/10 11:18:40;;;;;;;;;;;;;;;23.43;30.84;100989.28;103639;1285;61301;-82
2023/04/10 11:21:10;;;;;;;;;;;;;;;23.44;30.76;100988.30;103696;1288;61381;-83
2023/04/10 11:23:36;;;;;;;;;;;;;;;23.45;30.80;100980.51;103620;1285;61261;-82
2023/04/10 11:26:02;;;;;;;;;;;;;;;23.45;30.78;100980.67;103674;1286;61364;-81
2023/04/10 11:28:30;;;;;;;;;;;;;;;23.45;30.66;100971.85;103661;1288;61984;-82
2023/04/10 11:30:58;;;;;;;;;;;;;;;23.46;30.70;100970.84;103598;1285;61445;-81
2023/04/10 11:33:23;;;;;;;;;;;;;;;23.47;30.72;100969.56;103553;1286;62474;-82
2023/04/10 11:35:49;;;;;;;;;;;;;;;23.47;30.58;100958.96;103560;1288;61410;-82
2023/04/10 11:38:16;;;;;;;;;;;;;;;23.48;30.58;100964.61;103794;1287;62460;-81
2023/04/10 11:41:17;;;;;;;;;;;;;;;23.48;30.59;100964.42;103877;1283;61416;-82
2023/04/10 11:43:42;;;;;;;;;;;;;;;23.49;30.56;100959.52;102995;1291;61379;-81
2023/04/10 11:46:08;;;;;;;;;;;;;;;23.50;30.52;100956.38;102939;1297;61322;-81
2023/04/10 11:48:33;;;;;;;;;;;;;;;23.51;30.54;100948.41;102926;1291;61417;-82
2023/04/10 11:51:07;;;;;;;;;;;;;;;23.52;30.55;100940.77;102944;1291;62329;-82
2023/04/10 11:53:33;;;;;;;;;;;;;;;23.53;30.46;100934.79;102918;1291;61393;-81
2023/04/10 11:55:58;;;;;;;;;;;;;;;23.54;30.42;100936.64;102906;1291;61403;-82
2023/04/10 11:58:25;;;;;;;;;;;;;;;23.55;30.41;100935.50;102908;1293;61436;-80
2023/04/10 12:00:57;;;;;;;;;;;;;;;23.55;30.43;100933.14;104010;1290;61400;-80
2023/04/10 12:03:31;;;;;;;;;;;;;;;23.56;30.40;100924.11;103178;1296;61249;-80
2023/04/10 12:05:56;;;;;;;;;;;;;;;23.57;30.40;100920.27;102965;1291;72270;-81
2023/04/10 12:08:29;;;;;;;;;;;;;;;23.57;30.36;100920.27;103074;1291;62409;-81
2023/04/10 12:10:55;;;;;;;;;;;;;;;23.58;30.38;100918.23;103014;1291;61504;-81
2023/04/10 12:13:27;;;;;;;;;;;;;;;23.58;30.33;100915.14;103000;1291;61431;-81
2023/04/10 12:15:53;;;;;;;;;;;;;;;23.59;30.42;100906.64;102904;1297;73510;-81
2023/04/10 12:18:19;;;;;;;;;;;;;;;23.59;30.26;100904.80;103361;1288;61362;-81
2023/04/10 12:20:44;;;;;;;;;;;;;;;23.60;30.39;100900.75;103684;1285;61350;-80
2023/04/10 12:23:10;;;;;;;;;;;;;;;23.61;30.31;100896.77;103514;1283;62433;-82
2023/04/10 12:25:35;;;;;;;;;;;;;;;23.62;30.35;100891.15;103588;1288;61404;-82